Time;durP1;ratioP1;P1;durP2;ratioP2;P2;SDS_P1;SDS_P2;PMS_P1;PMS_P2;Temp;Humidity;BMP_temperature;BMP_pressure;BME280_temperature;BME280_humidity;BME280_pressure;Samples;Min_cycle;Max_cycle;Signal;HPM_P1;HPM_P2
2023/01/11 00:01:20;;;;;;;3.60;3.47;;;;;;;6.90;100.00;100608.88;6083301;23;20025;-70
2023/01/11 00:03:47;;;;;;;4.05;3.70;;;;;;;7.00;100.00;100627.63;6115917;23;20013;-70
2023/01/11 00:06:13;;;;;;;3.60;3.50;;;;;;;6.43;100.00;100532.44;6080982;23;20524;-71
2023/01/11 00:08:40;;;;;;;4.63;4.22;;;;;;;7.03;100.00;100627.50;6116372;23;20025;-72
2023/01/11 00:11:13;;;;;;;3.45;3.35;;;;;;;7.06;100.00;100624.78;6087741;23;20022;-71
2023/01/11 00:13:40;;;;;;;3.60;3.50;;;;;;;7.07;100.00;100623.00;6112345;23;20033;-71
2023/01/11 00:16:07;;;;;;;5.15;3.55;;;;;;;7.08;100.00;100620.34;6124644;23;20035;-71
2023/01/11 00:18:35;;;;;;;3.50;3.40;;;;;;;6.46;100.00;100511.47;6113503;23;20018;-70
2023/01/11 00:21:05;;;;;;;3.70;3.60;;;;;;;7.12;100.00;100627.16;6098015;23;20083;-70
2023/01/11 00:23:33;;;;;;;3.50;3.40;;;;;;;7.04;100.00;100591.84;6117057;23;20413;-70
2023/01/11 00:26:05;;;;;;;3.90;3.70;;;;;;;6.55;100.00;100508.50;6129243;23;20029;-71
2023/01/11 00:28:32;;;;;;;4.20;3.60;;;;;;;6.45;100.00;100481.94;6115946;23;20165;-70
2023/01/11 00:30:59;;;;;;;4.03;3.83;;;;;;;6.77;100.00;100524.16;6087528;23;20025;-70
2023/01/11 00:33:25;;;;;;;3.42;3.33;;;;;;;7.22;100.00;100600.66;6115400;23;20045;-71
2023/01/11 00:35:52;;;;;;;3.70;3.50;;;;;;;7.33;100.00;100606.31;6127176;23;20106;-70
2023/01/11 00:49:23;;;;;;;4.53;4.22;;;;;;;7.17;100.00;100549.50;6109568;23;20069;-71
2023/01/11 00:51:50;;;;;;;3.53;3.42;;;;;;;7.48;100.00;100613.53;6083607;23;20018;-70
2023/01/11 00:54:17;;;;;;;4.10;3.90;;;;;;;7.22;100.00;100580.66;6090415;23;20110;-71
2023/01/11 00:56:43;;;;;;;3.80;3.60;;;;;;;7.28;100.00;100567.34;6124510;23;20057;-71
2023/01/11 00:59:09;;;;;;;4.07;3.88;;;;;;;6.77;100.00;100470.22;6095465;23;20044;-70
2023/01/11 01:01:36;;;;;;;3.83;3.65;;;;;;;6.76;100.00;100476.38;6120471;23;20078;-71
2023/01/11 01:04:03;;;;;;;4.00;3.80;;;;;;;7.49;100.00;100598.72;6066089;23;20406;-71
2023/01/11 01:06:30;;;;;;;3.55;3.45;;;;;;;7.31;100.00;100569.00;6119346;23;20030;-71
2023/01/11 01:08:56;;;;;;;3.67;3.58;;;;;;;7.50;100.00;100587.38;6064826;23;20353;-71
2023/01/11 01:11:23;;;;;;;4.00;3.80;;;;;;;7.35;100.00;100584.44;6118754;23;20608;-72
2023/01/11 01:16:35;;;;;;;3.80;3.60;;;;;;;7.31;100.00;100555.94;6118456;23;20241;-71
2023/01/11 01:19:02;;;;;;;3.53;3.42;;;;;;;7.28;100.00;100546.47;6134154;23;20010;-71
2023/01/11 01:21:28;;;;;;;3.60;3.50;;;;;;;7.59;100.00;100587.81;6113633;23;20444;-71
2023/01/11 01:23:56;;;;;;;3.65;3.55;;;;;;;7.58;100.00;100585.28;6093025;23;20013;-71
2023/01/11 01:26:22;;;;;;;4.10;3.90;;;;;;;7.34;100.00;100545.38;6116676;23;20084;-71
2023/01/11 01:28:49;;;;;;;3.70;3.60;;;;;;;7.54;100.00;100576.72;6091888;23;20026;-71
2023/01/11 01:31:16;;;;;;;3.90;3.80;;;;;;;6.56;100.00;100427.63;6119428;23;20492;-72
2023/01/11 01:33:42;;;;;;;4.15;3.90;;;;;;;7.26;100.00;100524.81;6096201;23;20053;-71
2023/01/11 01:36:09;;;;;;;3.83;3.70;;;;;;;7.52;100.00;100555.06;6097581;23;20033;-71
2023/01/11 01:38:35;;;;;;;3.75;3.65;;;;;;;7.19;100.00;100490.25;6119999;23;20009;-71
2023/01/11 01:41:02;;;;;;;14.05;4.28;;;;;;;7.62;100.00;100557.25;6097412;23;20034;-71
2023/01/11 01:43:51;;;;;;;3.70;3.55;;;;;;;7.65;100.00;100554.53;6115662;23;20225;-71
2023/01/11 01:46:20;;;;;;;3.83;3.70;;;;;;;7.66;100.00;100571.88;6125888;23;20088;-71
2023/01/11 01:48:51;;;;;;;3.90;3.70;;;;;;;7.68;100.00;100549.19;6093895;23;20039;-71
2023/01/11 01:51:42;;;;;;;3.70;3.60;;;;;;;7.71;100.00;100557.72;6122854;23;20420;-71
2023/01/11 01:54:14;;;;;;;4.35;4.15;;;;;;;7.78;100.00;100551.34;6095008;23;20384;-71
2023/01/11 01:56:51;;;;;;;3.95;3.75;;;;;;;7.63;100.00;100532.84;6115718;23;20065;-71
2023/01/11 01:59:20;;;;;;;3.60;3.50;;;;;;;7.82;100.00;100551.19;6128283;23;20303;-71
2023/01/11 02:01:48;;;;;;;3.50;3.40;;;;;;;7.36;100.00;100491.34;6088265;23;20401;-72
2023/01/11 02:04:27;;;;;;;3.85;3.72;;;;;;;7.83;100.00;100552.91;6104011;23;20088;-71
2023/01/11 02:06:58;;;;;;;3.88;3.67;;;;;;;7.83;100.00;100552.91;6114058;23;20349;-71
2023/01/11 02:09:37;;;;;;;3.80;3.60;;;;;;;7.82;100.00;100548.56;6120837;23;20025;-70
2023/01/11 02:12:06;;;;;;;4.00;3.80;;;;;;;7.06;100.00;100430.84;6095163;23;20321;-70
2023/01/11 02:14:36;;;;;;;3.80;3.60;;;;;;;7.58;100.00;100536.50;6089597;23;20295;-71
2023/01/11 02:17:02;;;;;;;4.50;4.20;;;;;;;7.75;100.00;100519.25;6091972;23;20217;-70
2023/01/11 02:19:34;;;;;;;3.70;3.60;;;;;;;7.87;100.00;100526.56;6114901;23;20021;-71
2023/01/11 02:22:01;;;;;;;4.10;3.80;;;;;;;7.91;100.00;100529.91;6088342;23;20050;-71
2023/01/11 02:24:51;;;;;;;3.53;3.42;;;;;;;7.13;100.00;100391.34;6115629;23;20048;-71
2023/01/11 02:27:54;;;;;;;4.03;3.83;;;;;;;8.02;100.00;100524.19;6122452;23;20439;-70
2023/01/11 02:30:25;;;;;;;4.00;3.80;;;;;;;8.01;100.00;100520.72;6088998;23;20084;-70
2023/01/11 02:33:12;;;;;;;4.05;3.83;;;;;;;7.21;100.00;100392.78;6126786;23;20026;-70
2023/01/11 02:35:54;;;;;;;3.90;3.70;;;;;;;7.99;100.00;100512.97;6114369;23;20037;-70
2023/01/11 02:38:26;;;;;;;4.00;3.80;;;;;;;7.95;100.00;100513.16;6090067;23;20028;-71
2023/01/11 02:41:04;;;;;;;4.00;3.70;;;;;;;7.96;100.00;100507.88;6115209;23;20154;-71
2023/01/11 02:46:38;;;;;;;4.10;3.90;;;;;;;7.92;100.00;100498.47;6089458;23;20030;-71
2023/01/11 02:49:31;;;;;;;3.53;3.42;;;;;;;7.89;100.00;100496.00;6113039;23;20076;-71
2023/01/11 02:52:47;;;;;;;3.53;3.42;;;;;;;7.86;100.00;100474.38;6115031;23;20025;-71
2023/01/11 02:55:19;;;;;;;3.55;3.45;;;;;;;7.87;100.00;100470.84;6102825;23;20005;-70
2023/01/11 02:57:46;;;;;;;3.80;3.60;;;;;;;6.58;100.00;100266.75;6091500;23;20017;-71
2023/01/11 03:00:15;;;;;;;3.83;3.70;;;;;;;7.84;100.00;100453.56;6090663;23;20101;-71
2023/01/11 03:02:42;;;;;;;4.15;3.95;;;;;;;6.51;100.00;100227.97;6120028;23;20021;-70
2023/01/11 03:05:13;;;;;;;3.85;3.72;;;;;;;7.85;100.00;100442.19;6128267;23;20018;-70
2023/01/11 03:07:59;;;;;;;4.13;3.92;;;;;;;7.78;100.00;100412.03;6116787;23;20467;-71
2023/01/11 03:10:50;;;;;;;3.75;3.65;;;;;;;7.26;100.00;100329.06;6128274;23;20035;-70
2023/01/11 03:13:38;;;;;;;4.10;3.90;;;;;;;7.86;100.00;100420.38;6110273;23;20067;-70
2023/01/11 03:16:07;;;;;;;3.80;3.70;;;;;;;7.89;100.00;100406.31;6122562;23;20444;-70
2023/01/11 03:18:58;;;;;;;3.65;3.55;;;;;;;7.72;100.00;100387.03;6116617;23;20205;-70
2023/01/11 03:21:36;;;;;;;3.72;3.63;;;;;;;7.92;100.00;100403.59;6062034;23;20025;-70
2023/01/11 03:24:32;;;;;;;3.70;3.60;;;;;;;7.76;100.00;100379.91;6114731;23;20080;-70
2023/01/11 03:27:14;;;;;;;3.75;3.65;;;;;;;7.51;100.00;100331.38;6128531;23;20332;-70
2023/01/11 03:29:59;;;;;;;4.00;3.80;;;;;;;8.02;100.00;100406.59;6116207;23;20042;-70
2023/01/11 03:32:38;;;;;;;4.50;4.30;;;;;;;8.03;100.00;100421.38;6091188;23;20134;-70
2023/01/11 03:35:24;;;;;;;4.18;3.97;;;;;;;8.05;100.00;100417.75;6088993;23;20043;-70
2023/01/11 03:38:05;;;;;;;4.10;3.90;;;;;;;7.79;100.00;100374.53;6120792;23;20096;-70
2023/01/11 03:40:49;;;;;;;3.70;3.60;;;;;;;8.07;100.00;100413.31;6097093;23;20029;-70
2023/01/11 03:43:19;;;;;;;4.20;4.00;;;;;;;8.13;100.00;100415.63;6070964;23;20046;-70
2023/01/11 03:45:56;;;;;;;3.83;3.70;;;;;;;7.45;100.00;100312.56;6111878;23;20236;-71
2023/01/11 03:48:31;;;;;;;4.75;4.55;;;;;;;8.14;100.00;100419.13;6123184;23;20502;-70
2023/01/11 03:51:00;;;;;;;5.72;4.45;;;;;;;8.21;100.00;100415.28;6115417;23;20025;-71
2023/01/11 03:53:30;;;;;;;4.30;4.00;;;;;;;8.19;100.00;100411.88;6123093;23;20021;-70
2023/01/11 03:55:58;;;;;;;4.93;4.55;;;;;;;8.16;100.00;100406.81;6089242;23;20028;-70
2023/01/11 03:58:26;;;;;;;5.50;4.78;;;;;;;7.87;100.00;100382.88;6112833;23;20279;-70
2023/01/11 04:00:55;;;;;;;4.32;4.03;;;;;;;7.76;100.00;100335.50;6065333;23;20018;-70
2023/01/11 04:03:21;;;;;;;4.18;3.90;;;;;;;8.24;100.00;100420.38;6110352;23;20461;-70
2023/01/11 04:05:56;;;;;;;4.97;4.65;;;;;;;8.26;100.00;100407.22;6090868;23;20064;-70
2023/01/11 04:08:23;;;;;;;5.72;5.15;;;;;;;8.08;100.00;100416.75;6114180;23;20033;-70
2023/01/11 04:10:49;;;;;;;5.95;5.43;;;;;;;8.14;100.00;100375.53;6091762;23;20041;-70
2023/01/11 04:13:15;;;;;;;5.13;4.82;;;;;;;8.27;100.00;100393.22;6113351;23;20028;-70
2023/01/11 04:15:42;;;;;;;4.60;4.30;;;;;;;7.77;100.00;100329.34;6106675;23;20410;-70
2023/01/11 04:18:08;;;;;;;5.13;4.43;;;;;;;7.88;100.00;100318.41;6121970;23;20033;-71
2023/01/11 04:20:37;;;;;;;4.80;4.18;;;;;;;7.94;100.00;100320.75;6093092;23;20084;-70
2023/01/11 04:23:05;;;;;;;4.25;4.05;;;;;;;8.31;100.00;100379.09;6068698;23;20053;-71
2023/01/11 04:25:34;;;;;;;3.78;3.67;;;;;;;8.32;100.00;100381.63;6106079;23;20025;-70
2023/01/11 04:28:01;;;;;;;4.03;3.83;;;;;;;8.15;100.00;100345.00;6082044;23;20056;-70
2023/01/11 04:30:27;;;;;;;3.97;3.78;;;;;;;7.81;100.00;100283.88;6104595;23;20005;-71
2023/01/11 04:32:56;;;;;;;4.30;4.10;;;;;;;8.40;100.00;100360.34;6121492;23;20468;-71
2023/01/11 04:35:24;;;;;;;3.92;3.75;;;;;;;8.43;100.00;100362.00;6073984;23;20047;-70
2023/01/11 04:37:56;;;;;;;4.78;4.47;;;;;;;8.47;100.00;100360.94;6070789;23;20105;-71
2023/01/11 04:40:24;;;;;;;4.65;4.15;;;;;;;8.51;100.00;100365.94;6091508;23;20040;-70
2023/01/11 04:42:50;;;;;;;4.20;4.00;;;;;;;8.31;100.00;100314.56;6076107;23;20084;-70
2023/01/11 04:45:19;;;;;;;4.65;4.45;;;;;;;8.49;100.00;100335.56;6107698;23;20063;-71
2023/01/11 04:47:52;;;;;;;3.80;3.70;;;;;;;8.62;100.00;100338.38;6122505;23;20026;-70
2023/01/11 04:50:19;;;;;;;4.03;3.85;;;;;;;8.77;100.00;100363.78;6113046;23;20031;-70
2023/01/11 04:52:45;;;;;;;4.10;3.90;;;;;;;8.51;100.00;100318.84;6087291;23;21120;-70
2023/01/11 04:55:12;;;;;;;14.57;4.25;;;;;;;8.71;100.00;100332.72;6124888;23;20233;-70
2023/01/11 04:57:38;;;;;;;4.10;3.90;;;;;;;8.41;100.00;100291.47;6096839;23;20045;-70
2023/01/11 05:00:09;;;;;;;3.90;3.80;;;;;;;8.90;100.00;100356.16;6086565;23;20056;-70
2023/01/11 05:02:37;;;;;;;3.83;3.72;;;;;;;8.59;100.00;100305.41;6117219;23;20078;-70
2023/01/11 05:05:05;;;;;;;4.10;3.90;;;;;;;8.65;100.00;100318.16;6086997;23;20028;-71
2023/01/11 05:07:33;;;;;;;4.07;3.88;;;;;;;8.67;100.00;100316.31;6119251;23;20011;-70
2023/01/11 05:10:01;;;;;;;12.32;3.90;;;;;;;8.52;100.00;100285.69;6091898;23;20037;-70
2023/01/11 05:12:27;;;;;;;3.80;3.70;;;;;;;8.92;100.00;100352.56;6091155;23;20360;-70
2023/01/11 05:14:53;;;;;;;3.80;3.70;;;;;;;8.86;100.00;100341.53;6085591;23;20330;-70
2023/01/11 05:17:20;;;;;;;4.00;3.80;;;;;;;8.95;100.00;100354.16;6118356;23;20021;-70
2023/01/11 05:19:46;;;;;;;4.32;4.13;;;;;;;8.66;100.00;100288.47;6089420;23;20069;-70
2023/01/11 05:22:13;;;;;;;4.25;4.05;;;;;;;9.06;100.00;100359.72;6111383;23;20052;-70
2023/01/11 05:24:39;;;;;;;4.10;3.90;;;;;;;8.66;100.00;100293.72;6086883;23;20358;-70
2023/01/11 05:27:08;;;;;;;4.07;3.88;;;;;;;9.07;100.00;100356.16;6119017;23;20040;-70
2023/01/11 05:29:35;;;;;;;4.22;4.03;;;;;;;9.11;100.00;100367.31;6121425;23;20334;-70
2023/01/11 05:32:01;;;;;;;3.80;3.70;;;;;;;9.12;100.00;100369.00;6094888;23;20287;-70
2023/01/11 05:34:28;;;;;;;4.10;3.90;;;;;;;9.10;100.00;100363.88;6137391;23;20067;-70
2023/01/11 05:36:54;;;;;;;4.10;3.90;;;;;;;9.11;100.00;100373.41;6124633;18;20563;-70
2023/01/11 05:39:22;;;;;;;4.00;3.80;;;;;;;8.42;100.00;100245.25;6065623;23;20607;-70
2023/01/11 05:41:49;;;;;;;4.20;4.00;;;;;;;9.06;100.00;100337.91;6065346;23;20022;-71
2023/01/11 05:47:00;;;;;;;4.07;3.88;;;;;;;8.61;100.00;100259.09;6062495;23;20392;-70
2023/01/11 05:49:27;;;;;;;4.10;3.90;;;;;;;9.25;100.00;100356.97;6040959;23;20722;-71
2023/01/11 05:51:53;;;;;;;4.10;3.90;;;;;;;9.27;100.00;100370.00;6040777;23;20082;-71
2023/01/11 05:54:20;;;;;;;5.88;5.57;;;;;;;8.77;100.00;100290.53;6037105;23;20021;-70
2023/01/11 05:56:47;;;;;;;4.47;4.18;;;;;;;9.28;100.00;100361.19;6064017;23;20202;-71
2023/01/11 05:59:13;;;;;;;4.15;3.95;;;;;;;9.29;100.00;100361.13;6067961;23;20030;-70
2023/01/11 06:01:39;;;;;;;4.40;4.20;;;;;;;9.12;100.00;100335.84;6064684;23;20014;-70
2023/01/11 06:04:07;;;;;;;4.30;4.10;;;;;;;9.10;100.00;100319.38;6056224;23;20283;-70
2023/01/11 06:06:34;;;;;;;4.20;4.00;;;;;;;9.03;100.00;100307.50;6011590;23;20211;-71
2023/01/11 06:09:00;;;;;;;4.13;3.92;;;;;;;8.93;100.00;100285.34;6036049;23;20026;-70
2023/01/11 06:11:27;;;;;;;4.55;4.25;;;;;;;9.38;100.00;100362.41;6066374;23;20041;-70
2023/01/11 06:13:53;;;;;;;4.30;4.10;;;;;;;9.35;100.00;100352.94;6065306;23;20022;-70
2023/01/11 06:16:21;;;;;;;4.30;4.10;;;;;;;9.45;100.00;100344.63;6069444;23;20366;-70
2023/01/11 06:18:50;;;;;;;4.13;3.92;;;;;;;9.46;100.00;100349.78;6046977;23;20034;-70
2023/01/11 06:21:17;;;;;;;4.38;4.18;;;;;;;9.46;100.00;100347.16;6058463;23;20034;-70
2023/01/11 06:23:47;;;;;;;4.40;4.20;;;;;;;9.13;100.00;100286.94;6065188;23;20030;-70
2023/01/11 06:26:15;;;;;;;4.32;4.13;;;;;;;9.08;100.00;100294.16;6054593;23;20080;-70
2023/01/11 06:28:43;;;;;;;4.15;3.95;;;;;;;9.53;100.00;100352.91;6061668;23;20109;-70
2023/01/11 06:31:10;;;;;;;4.00;3.80;;;;;;;9.55;100.00;100362.38;6062619;23;20030;-70
2023/01/11 06:33:37;;;;;;;4.28;4.07;;;;;;;9.58;100.00;100390.16;6064193;23;20081;-69
2023/01/11 06:36:09;;;;;;;3.92;3.80;;;;;;;9.48;100.00;100347.94;6059860;23;20707;-70
2023/01/11 06:38:36;;;;;;;4.00;3.83;;;;;;;9.64;100.00;100365.41;6062996;23;20076;-70
2023/01/11 06:41:04;;;;;;;4.10;3.90;;;;;;;9.64;100.00;100360.19;6039018;23;20038;-70
2023/01/11 06:43:31;;;;;;;4.13;3.92;;;;;;;9.61;100.00;100361.19;6060133;23;20578;-70
2023/01/11 06:45:58;;;;;;;3.97;3.83;;;;;;;9.69;100.00;100368.66;6065785;23;20077;-70
2023/01/11 06:48:26;;;;;;;4.20;4.00;;;;;;;9.18;100.00;100290.13;6126641;18;20052;-70
2023/01/11 06:50:55;;;;;;;4.10;3.90;;;;;;;9.66;100.00;100360.94;6090166;23;20472;-70
2023/01/11 06:53:24;;;;;;;4.30;4.10;;;;;;;9.01;100.00;100272.72;6147452;23;20017;-70
2023/01/11 06:55:55;;;;;;;4.25;4.05;;;;;;;9.68;100.00;100369.56;6114957;23;20010;-70
2023/01/11 06:58:23;;;;;;;4.20;4.00;;;;;;;9.70;100.00;100371.19;6140611;23;20110;-70
2023/01/11 07:00:51;;;;;;;4.10;3.90;;;;;;;9.73;100.00;100376.25;6140654;23;20347;-70
2023/01/11 07:03:19;;;;;;;4.05;3.85;;;;;;;9.19;100.00;100292.69;6144297;23;20029;-70
2023/01/11 07:05:45;;;;;;;4.18;3.97;;;;;;;9.67;100.00;100368.72;6137411;23;20025;-70
2023/01/11 07:08:12;;;;;;;4.32;4.13;;;;;;;9.42;100.00;100326.44;6142036;23;20071;-70
2023/01/11 07:10:38;;;;;;;4.35;4.15;;;;;;;9.53;100.00;100348.50;6141638;23;20024;-69
2023/01/11 07:13:05;;;;;;;4.13;3.92;;;;;;;9.17;100.00;100281.44;6169726;23;20458;-70
2023/01/11 07:15:31;;;;;;;4.03;3.83;;;;;;;9.44;100.00;100329.81;6143035;23;20044;-70
2023/01/11 07:17:59;;;;;;;4.13;3.92;;;;;;;9.80;100.00;100384.63;6147961;23;20282;-70
2023/01/11 07:21:09;;;;;;;17.50;16.60;;;;;;;9.81;100.00;100386.34;6149858;23;20268;-70
2023/01/11 07:24:14;;;;;;;4.07;3.88;;;;;;;9.45;100.00;100319.25;6095536;23;20045;-71
2023/01/11 07:26:42;;;;;;;4.10;3.90;;;;;;;9.99;100.00;100423.81;6144517;23;20032;-69
2023/01/11 07:29:09;;;;;;;4.07;3.88;;;;;;;10.01;100.00;100415.88;6172977;23;20478;-71
2023/01/11 07:31:36;;;;;;;4.53;4.30;;;;;;;9.99;100.00;100415.94;6139305;23;20060;-71
2023/01/11 07:34:03;;;;;;;4.10;3.80;;;;;;;10.01;100.00;100426.34;6139517;23;20020;-69
2023/01/11 07:36:29;;;;;;;4.18;3.97;;;;;;;9.54;100.00;100350.22;6136206;23;20527;-71
2023/01/11 07:38:56;;;;;;;4.13;3.92;;;;;;;10.00;100.00;100422.88;6132520;23;20020;-69
2023/01/11 07:44:07;;;;;;;4.18;3.97;;;;;;;9.91;100.00;100437.31;6141396;23;20356;-68
2023/01/11 07:46:34;;;;;;;4.45;4.25;;;;;;;9.74;100.00;100401.56;6163951;23;20022;-70
2023/01/11 07:49:00;;;;;;;13.55;4.00;;;;;;;9.44;100.00;100351.63;6136924;23;20045;-69
2023/01/11 07:51:27;;;;;;;4.13;3.92;;;;;;;9.82;100.00;100403.72;6140349;23;20027;-71
2023/01/11 07:53:53;;;;;;;4.30;4.10;;;;;;;9.41;100.00;100348.31;6140834;23;20033;-70
2023/01/11 07:56:19;;;;;;;5.68;5.38;;;;;;;9.48;100.00;100353.16;6139042;23;20621;-71
2023/01/11 07:58:49;;;;;;;4.50;4.30;;;;;;;9.78;100.00;100402.22;6123773;23;20409;-70
2023/01/11 08:01:15;;;;;;;4.30;4.10;;;;;;;9.74;100.00;100388.44;6140061;23;20025;-70
2023/01/11 08:03:41;;;;;;;4.32;4.13;;;;;;;9.60;100.00;100375.22;6115035;23;20201;-70
2023/01/11 08:06:08;;;;;;;4.07;3.88;;;;;;;9.70;100.00;100407.00;6171420;23;20024;-70
2023/01/11 08:08:34;;;;;;;4.07;3.88;;;;;;;9.70;100.00;100409.63;6139131;23;20025;-70
2023/01/11 08:16:33;;;;;;;4.20;4.00;;;;;;;9.08;100.00;100360.47;6131170;23;20103;-71
2023/01/11 08:19:00;;;;;;;6.03;4.30;;;;;;;9.66;100.00;100455.28;6165878;23;20016;-70
2023/01/11 08:21:27;;;;;;;4.70;4.50;;;;;;;9.67;100.00;100465.69;6118936;23;20020;-70
2023/01/11 08:23:57;;;;;;;4.20;4.00;;;;;;;9.54;100.00;100434.03;6143897;23;20072;-71
2023/01/11 08:26:25;;;;;;;4.85;4.45;;;;;;;9.70;100.00;100462.03;6136946;23;20392;-70
2023/01/11 08:28:53;;;;;;;4.30;4.10;;;;;;;9.71;100.00;100453.28;6113231;23;21059;-70
2023/01/11 08:31:20;;;;;;;4.25;4.05;;;;;;;9.14;100.00;100378.50;6170229;23;20031;-70
2023/01/11 08:33:48;;;;;;;4.15;3.95;;;;;;;9.67;100.00;100480.56;6149572;23;20029;-69
2023/01/11 08:36:15;;;;;;;6.70;6.30;;;;;;;9.67;100.00;100498.91;6167483;23;20556;-70
2023/01/11 08:38:42;;;;;;;4.30;4.00;;;;;;;9.04;100.00;100392.97;6135808;23;20013;-70
2023/01/11 08:41:13;;;;;;;4.78;4.57;;;;;;;9.25;100.00;100438.16;6132807;23;20035;-70
2023/01/11 08:43:40;;;;;;;7.97;6.03;;;;;;;9.61;100.00;100479.09;6109533;23;20021;-70
2023/01/11 08:46:08;;;;;;;7.38;6.68;;;;;;;8.84;100.00;100351.25;6139213;23;20028;-70
2023/01/11 08:48:35;;;;;;;5.70;5.30;;;;;;;9.09;100.00;100388.34;6169341;23;20260;-71
2023/01/11 08:51:01;;;;;;;6.53;5.93;;;;;;;9.43;100.00;100449.47;6114282;23;20026;-70
2023/01/11 08:53:28;;;;;;;24.10;10.43;;;;;;;9.17;100.00;100398.41;6168118;23;20021;-72
2023/01/11 08:55:54;;;;;;;11.05;8.18;;;;;;;9.79;100.00;100496.47;6136183;23;20107;-72
2023/01/11 08:58:21;;;;;;;8.98;5.22;;;;;;;9.73;100.00;100493.34;6135970;23;20026;-72
2023/01/11 09:00:47;;;;;;;4.88;4.68;;;;;;;9.77;100.00;100516.69;6109264;23;20105;-72
2023/01/11 09:03:14;;;;;;;4.53;4.32;;;;;;;9.83;100.00;100525.16;6170051;23;20021;-72
2023/01/11 09:05:41;;;;;;;4.22;4.03;;;;;;;9.25;100.00;100443.38;6144056;23;20039;-70
2023/01/11 09:08:07;;;;;;;4.40;4.20;;;;;;;9.84;100.00;100511.13;6151880;23;20223;-72
2023/01/11 09:10:34;;;;;;;5.10;4.63;;;;;;;9.86;100.00;100531.09;6141515;23;20141;-70
2023/01/11 09:13:00;;;;;;;5.38;4.88;;;;;;;9.64;100.00;100484.19;6136989;23;20021;-70
2023/01/11 09:15:27;;;;;;;5.22;4.93;;;;;;;9.48;100.00;100457.94;6144505;23;20433;-70
2023/01/11 09:17:54;;;;;;;4.50;4.20;;;;;;;9.62;100.00;100462.44;6107453;23;20069;-70
2023/01/11 09:20:21;;;;;;;4.90;4.60;;;;;;;9.86;100.00;100490.91;6161728;23;20016;-70
2023/01/11 09:22:50;;;;;;;4.78;4.57;;;;;;;9.43;100.00;100436.38;6129614;23;20044;-70
2023/01/11 09:25:19;;;;;;;4.57;4.38;;;;;;;9.63;100.00;100471.16;6134876;23;20032;-71
2023/01/11 09:27:48;;;;;;;11.77;5.82;;;;;;;9.96;100.00;100548.03;6133881;23;20021;-71
2023/01/11 09:30:17;;;;;;;14.93;4.65;;;;;;;9.55;100.00;100493.34;6167618;23;20466;-72
2023/01/11 09:32:45;;;;;;;5.60;5.25;;;;;;;9.84;100.00;100540.78;6119946;23;20443;-71
2023/01/11 09:35:13;;;;;;;4.68;4.43;;;;;;;9.76;100.00;100519.38;6169441;23;20103;-71
2023/01/11 09:37:43;;;;;;;4.90;4.60;;;;;;;9.37;100.00;100481.19;6111109;23;20424;-71
2023/01/11 09:40:19;;;;;;;8.88;4.97;;;;;;;9.62;100.00;100538.41;6142066;23;20023;-70
2023/01/11 09:42:52;;;;;;;5.28;4.80;;;;;;;9.37;100.00;100521.31;6168608;23;20523;-71
2023/01/11 09:45:26;;;;;;;4.82;4.47;;;;;;;9.55;100.00;100558.00;6142080;23;20028;-71
2023/01/11 09:48:21;;;;;;;8.60;5.18;;;;;;;9.66;100.00;100583.66;6135010;23;20029;-70
2023/01/11 09:50:48;;;;;;;4.97;4.70;;;;;;;9.43;100.00;100551.63;6142431;23;20024;-71
2023/01/11 09:53:23;;;;;;;5.57;4.57;;;;;;;9.57;100.00;100590.22;6168586;23;20041;-70
2023/01/11 09:55:51;;;;;;;6.38;4.85;;;;;;;9.24;100.00;100542.97;6142983;23;20167;-70
2023/01/11 09:58:49;;;;;;;9.15;5.82;;;;;;;9.51;100.00;100611.47;6140295;23;20361;-71
2023/01/11 10:01:48;;;;;;;4.43;4.13;;;;;;;9.45;100.00;100604.78;6115698;23;20108;-71
2023/01/11 10:04:31;;;;;;;6.10;4.78;;;;;;;9.46;100.00;100598.63;6168168;23;20091;-70
2023/01/11 10:07:18;;;;;;;4.85;4.55;;;;;;;9.47;100.00;100625.66;6139627;23;20071;-70
2023/01/11 10:10:04;;;;;;;5.35;5.03;;;;;;;9.33;100.00;100600.13;6165058;23;20028;-70
2023/01/11 10:13:08;;;;;;;16.75;4.60;;;;;;;9.51;100.00;100649.00;6135351;23;20025;-70
2023/01/11 10:16:25;;;;;;;8.13;4.35;;;;;;;9.24;100.00;100597.94;6160330;23;20571;-71
2023/01/11 10:19:31;;;;;;;7.07;5.40;;;;;;;9.29;100.00;100586.34;6114494;23;20255;-70
2023/01/11 10:22:10;;;;;;;5.60;5.10;;;;;;;9.70;100.00;100632.38;6145686;23;20021;-70
2023/01/11 10:24:47;;;;;;;5.07;4.78;;;;;;;8.99;100.00;100525.84;6124979;23;20082;-70
2023/01/11 10:27:20;;;;;;;6.90;6.35;;;;;;;9.79;100.00;100664.22;6162613;23;20089;-71
2023/01/11 10:30:11;;;;;;;6.28;5.78;;;;;;;9.30;100.00;100572.34;6152252;23;20553;-70
2023/01/11 10:33:12;;;;;;;5.18;4.75;;;;;;;9.73;100.00;100627.00;6133838;23;20026;-70
2023/01/11 10:36:12;;;;;;;15.10;5.35;;;;;;;9.98;100.00;100658.03;6134922;23;20017;-78
2023/01/11 10:41:51;;;;;;;5.43;4.95;;;;;;;9.70;100.00;100601.78;6140080;23;20035;-67
2023/01/11 10:44:33;;;;;;;18.33;6.13;;;;;;;9.69;100.00;100610.56;6165751;23;20089;-66
2023/01/11 10:47:02;;;;;;;5.80;5.30;;;;;;;9.58;100.00;100602.38;6121160;23;20024;-72
2023/01/11 10:49:38;;;;;;;8.43;6.05;;;;;;;9.94;100.00;100662.63;6134308;23;20411;-69
2023/01/11 10:52:19;;;;;;;6.03;5.53;;;;;;;9.92;100.00;100647.88;6147280;23;20127;-70
2023/01/11 10:54:52;;;;;;;12.23;4.63;;;;;;;9.37;100.00;100551.91;6150195;23;20029;-70
2023/01/11 10:57:40;;;;;;;5.25;4.90;;;;;;;9.86;100.00;100638.56;6144005;23;20036;-72
2023/01/11 11:00:34;;;;;;;5.15;4.85;;;;;;;10.01;100.00;100662.31;6161807;23;20667;-71
2023/01/11 11:03:14;;;;;;;8.18;5.60;;;;;;;10.07;100.00;100656.75;6141674;23;20032;-71
2023/01/11 11:05:52;;;;;;;6.90;5.40;;;;;;;10.24;100.00;100656.72;6165386;23;20077;-69
2023/01/11 11:08:50;;;;;;;5.40;4.85;;;;;;;10.55;100.00;100661.25;6112629;23;20032;-70
2023/01/11 11:11:30;;;;;;;7.40;6.90;;;;;;;10.54;100.00;100627.22;6130667;23;20145;-68
2023/01/11 11:14:03;;;;;;;5.38;4.90;;;;;;;10.61;100.00;100657.47;6140762;23;20341;-68
2023/01/11 11:16:48;;;;;;;;;;;;;;;10.63;100.00;100647.75;6161703;23;20379;-69
2023/01/11 11:19:19;;;;;;;6.07;5.20;;;;;;;10.50;100.00;100649.31;6119804;23;19988;-72
2023/01/11 11:21:47;;;;;;;5.82;4.97;;;;;;;10.36;100.00;100627.28;6114941;23;20042;-69
2023/01/11 11:24:40;;;;;;;5.13;4.82;;;;;;;9.96;100.00;100589.13;6167781;23;20044;-68
2023/01/11 11:27:27;;;;;;;4.85;4.60;;;;;;;10.35;100.00;100664.94;6138920;23;20116;-68
2023/01/11 11:29:55;;;;;;;4.70;4.50;;;;;;;10.44;100.00;100663.59;6112670;23;20102;-68
2023/01/11 11:32:30;;;;;;;5.28;4.78;;;;;;;10.23;100.00;100654.19;6134328;23;20085;-68
2023/01/11 11:34:57;;;;;;;5.05;4.63;;;;;;;10.06;100.00;100642.78;6123177;23;20049;-68
2023/01/11 11:37:53;;;;;;;14.75;5.10;;;;;;;9.94;100.00;100653.88;6146793;23;20028;-70
2023/01/11 11:40:35;;;;;;;5.93;5.28;;;;;;;9.79;100.00;100637.16;6135737;23;20036;-69
2023/01/11 11:43:18;;;;;;;5.95;5.43;;;;;;;9.82;100.00;100631.75;6156931;23;20100;-68
2023/01/11 11:45:54;;;;;;;4.35;4.15;;;;;;;9.79;100.00;100626.69;6122449;23;20388;-68
2023/01/11 11:48:21;;;;;;;4.65;4.32;;;;;;;9.31;100.00;100529.50;6163401;23;20036;-68
2023/01/11 11:50:50;;;;;;;4.60;4.30;;;;;;;9.83;100.00;100588.91;6141647;23;20091;-70
2023/01/11 11:53:22;;;;;;;5.38;4.95;;;;;;;9.97;100.00;100590.81;6162177;23;20073;-68
2023/01/11 11:55:50;;;;;;;4.95;4.65;;;;;;;10.27;100.00;100626.88;6136770;23;20021;-68
2023/01/11 11:58:21;;;;;;;6.35;4.80;;;;;;;10.01;100.00;100552.19;6167144;23;20065;-69
2023/01/11 12:00:50;;;;;;;5.18;4.88;;;;;;;10.21;100.00;100574.75;6134290;23;20080;-69
2023/01/11 12:03:28;;;;;;;11.05;5.00;;;;;;;10.39;100.00;100602.66;6137045;23;20392;-68
2023/01/11 12:06:02;;;;;;;5.45;5.03;;;;;;;10.61;100.00;100631.22;6135161;23;20095;-69
2023/01/11 12:08:31;;;;;;;11.13;6.50;;;;;;;10.55;100.00;100624.53;6157441;23;20046;-69
2023/01/11 12:11:01;;;;;;;5.95;5.47;;;;;;;10.65;100.00;100632.75;6139548;23;20025;-68
2023/01/11 12:13:36;;;;;;;4.63;4.40;;;;;;;10.14;100.00;100568.97;6135603;23;20048;-68
2023/01/11 12:16:18;;;;;;;4.90;4.45;;;;;;;10.04;100.00;100547.63;6140793;23;20028;-69
2023/01/11 12:18:45;;;;;;;31.02;5.10;;;;;;;10.23;100.00;100609.63;6161614;23;20087;-68